PWSweather.com
Personal Weather Stations
Station Observations
270882
Flassian, LimouxFR 11300

FlassianLimouxFR 11300

Lat: 43.071798, Lon: 2.217292

Elevation: 165

Station Type: Oregon WMR 200

http://www.meteolimoux.fr

High Low Average
Temperature 59.5°F15.3°C 48.9°F9.4°C 54.8°F12.7°C
Dew Point 49.5°F9.7°C 36.5°F2.5°C 45.9°F7.7°C
Winds 11.6 mph 18.7 kmh Calm Calm 6.0 mph W9.7 kmh W
Wind Gusts 28.9 mph46.5 kmh -- 13.0 mph20.9 kmh
Humidity 86% 57% 72%
Pressure 30.22 in1023.4 mb 30.07 in1018.3 mb -
Precipitation 0.00 in0.0 mm - -
Hour Temp Dew Point Humidity Winds Wind Gusts Pressure Precip Precip Rate Daily Precip Total
12:02 AM 54.0°F12.2°C 48.9°F9.4°C 83% 5.4 mph W8.7 kmh W 13.6 mph21.9 kmh 30.19 in1022.4 mb - 0.00 in0.0 mm 0.00 in0.0 mm
12:07 AM 53.8°F12.1°C 49.1°F9.5°C 84% 8.1 mph W13.0 kmh W 20.8 mph33.5 kmh 30.16 in1021.3 mb - 0.00 in0.0 mm 0.00 in0.0 mm
12:12 AM 53.8°F12.1°C 49.1°F9.5°C 84% 8.7 mph WSW14.0 kmh WSW 15.7 mph25.3 kmh 30.16 in1021.3 mb - 0.00 in0.0 mm 0.00 in0.0 mm
12:17 AM 53.8°F12.1°C 49.1°F9.5°C 84% 6.7 mph NW10.8 kmh NW 14.3 mph23.0 kmh 30.16 in1021.3 mb - 0.00 in0.0 mm 0.00 in0.0 mm
12:22 AM 53.8°F12.1°C 49.1°F9.5°C 84% 6.5 mph WSW10.5 kmh WSW 13.0 mph20.9 kmh 30.16 in1021.3 mb - 0.00 in0.0 mm 0.00 in0.0 mm
12:27 AM 53.6°F12.0°C 48.9°F9.4°C 84% 6.5 mph WSW10.5 kmh WSW 12.5 mph20.1 kmh 30.16 in1021.3 mb - 0.00 in0.0 mm 0.00 in0.0 mm
12:32 AM 53.8°F12.1°C 49.1°F9.5°C 84% 7.6 mph W12.2 kmh W 17.4 mph28.0 kmh 30.16 in1021.3 mb - 0.00 in0.0 mm 0.00 in0.0 mm
12:37 AM 53.6°F12.0°C 49.3°F9.6°C 85% 6.3 mph WNW10.1 kmh WNW 12.5 mph20.1 kmh 30.16 in1021.3 mb - 0.00 in0.0 mm 0.00 in0.0 mm
12:42 AM 53.4°F11.9°C 49.1°F9.5°C 85% 8.1 mph WNW13.0 kmh WNW 13.4 mph21.6 kmh 30.16 in1021.3 mb - 0.00 in0.0 mm 0.00 in0.0 mm
12:47 AM 53.1°F11.7°C 48.9°F9.4°C 86% 7.2 mph W11.6 kmh W 13.6 mph21.9 kmh 30.16 in1021.3 mb - 0.00 in0.0 mm 0.00 in0.0 mm
12:52 AM 53.1°F11.7°C 48.7°F9.3°C 85% 7.6 mph WSW12.2 kmh WSW 12.8 mph20.6 kmh 30.16 in1021.3 mb - 0.00 in0.0 mm 0.00 in0.0 mm
12:57 AM 52.9°F11.6°C 48.6°F9.2°C 85% 8.7 mph NW14.0 kmh NW 16.3 mph26.2 kmh 30.16 in1021.3 mb - 0.00 in0.0 mm 0.00 in0.0 mm
01:02 AM 52.9°F11.6°C 48.2°F9.0°C 84% 6.3 mph W10.1 kmh W 13.6 mph21.9 kmh 30.16 in1021.3 mb - 0.00 in0.0 mm 0.00 in0.0 mm
01:07 AM 53.1°F11.7°C 48.4°F9.1°C 84% 6.0 mph W9.7 kmh W 11.6 mph18.7 kmh 30.16 in1021.3 mb - 0.00 in0.0 mm 0.00 in0.0 mm
01:12 AM 53.1°F11.7°C 48.4°F9.1°C 84% 6.3 mph WSW10.1 kmh WSW 17.0 mph27.4 kmh 30.16 in1021.3 mb - 0.00 in0.0 mm 0.00 in0.0 mm
01:17 AM 52.9°F11.6°C 48.2°F9.0°C 84% 7.8 mph WSW12.6 kmh WSW 14.5 mph23.3 kmh 30.16 in1021.3 mb - 0.00 in0.0 mm 0.00 in0.0 mm
01:22 AM 52.9°F11.6°C 47.8°F8.8°C 83% 7.4 mph WSW11.9 kmh WSW 15.0 mph24.1 kmh 30.16 in1021.3 mb - 0.00 in0.0 mm 0.00 in0.0 mm
01:27 AM 52.9°F11.6°C 48.2°F9.0°C 84% 8.3 mph WSW13.4 kmh WSW 8.3 mph13.4 kmh 30.16 in1021.3 mb - 0.00 in0.0 mm 0.00 in0.0 mm
01:32 AM 52.9°F11.6°C 47.8°F8.8°C 83% 8.1 mph W13.0 kmh W 14.8 mph23.8 kmh 30.16 in1021.3 mb - 0.00 in0.0 mm 0.00 in0.0 mm
01:37 AM 52.9°F11.6°C 47.8°F8.8°C 83% 9.8 mph W15.8 kmh W 19.2 mph30.9 kmh 30.16 in1021.3 mb - 0.00 in0.0 mm 0.00 in0.0 mm
01:42 AM 52.9°F11.6°C 47.8°F8.8°C 83% 9.2 mph W14.8 kmh W 16.3 mph26.2 kmh 30.16 in1021.3 mb - 0.00 in0.0 mm 0.00 in0.0 mm
01:47 AM 52.9°F11.6°C 47.8°F8.8°C 83% 7.4 mph W11.9 kmh W 12.5 mph20.1 kmh 30.16 in1021.3 mb - 0.00 in0.0 mm 0.00 in0.0 mm
01:52 AM 52.9°F11.6°C 47.8°F8.8°C 83% 6.0 mph SW9.7 kmh SW 13.6 mph21.9 kmh 30.13 in1020.3 mb - 0.00 in0.0 mm 0.00 in0.0 mm
01:57 AM 52.9°F11.6°C 47.8°F8.8°C 83% 7.8 mph WSW12.6 kmh WSW 14.1 mph22.7 kmh 30.13 in1020.3 mb - 0.00 in0.0 mm 0.00 in0.0 mm
02:02 AM 52.9°F11.6°C 47.5°F8.6°C 82% 6.5 mph WNW10.5 kmh WNW 12.1 mph19.5 kmh 30.13 in1020.3 mb - 0.00 in0.0 mm 0.00 in0.0 mm
02:07 AM 52.9°F11.6°C 47.5°F8.6°C 82% 5.1 mph W8.2 kmh W 10.3 mph16.6 kmh 30.16 in1021.3 mb - 0.00 in0.0 mm 0.00 in0.0 mm
02:12 AM 53.1°F11.7°C 47.7°F8.7°C 82% 5.4 mph WNW8.7 kmh WNW 12.1 mph19.5 kmh 30.16 in1021.3 mb - 0.00 in0.0 mm 0.00 in0.0 mm
02:17 AM 53.2°F11.8°C 47.5°F8.6°C 81% 7.4 mph W11.9 kmh W 14.1 mph22.7 kmh 30.16 in1021.3 mb - 0.00 in0.0 mm 0.00 in0.0 mm
02:22 AM 53.2°F11.8°C 47.5°F8.6°C 81% 8.1 mph W13.0 kmh W 15.2 mph24.5 kmh 30.16 in1021.3 mb - 0.00 in0.0 mm 0.00 in0.0 mm
02:27 AM 53.2°F11.8°C 47.5°F8.6°C 81% 7.6 mph NW12.2 kmh NW 14.5 mph23.3 kmh 30.16 in1021.3 mb - 0.00 in0.0 mm 0.00 in0.0 mm
02:32 AM 53.2°F11.8°C 47.3°F8.5°C 80% 6.3 mph WNW10.1 kmh WNW 12.3 mph19.8 kmh 30.16 in1021.3 mb - 0.00 in0.0 mm 0.00 in0.0 mm
02:37 AM 53.2°F11.8°C 47.3°F8.5°C 80% 7.2 mph SW11.6 kmh SW 13.0 mph20.9 kmh 30.16 in1021.3 mb - 0.00 in0.0 mm 0.00 in0.0 mm
02:42 AM 53.2°F11.8°C 47.3°F8.5°C 80% 7.8 mph NW12.6 kmh NW 13.2 mph21.2 kmh 30.16 in1021.3 mb - 0.00 in0.0 mm 0.00 in0.0 mm
02:47 AM 53.2°F11.8°C 47.3°F8.5°C 80% 6.0 mph WSW9.7 kmh WSW 10.1 mph16.3 kmh 30.16 in1021.3 mb - 0.00 in0.0 mm 0.00 in0.0 mm
02:52 AM 53.2°F11.8°C 47.3°F8.5°C 80% 6.3 mph WSW10.1 kmh WSW 12.5 mph20.1 kmh 30.13 in1020.3 mb - 0.00 in0.0 mm 0.00 in0.0 mm
02:57 AM 53.4°F11.9°C 47.5°F8.6°C 80% 6.0 mph WSW9.7 kmh WSW 13.0 mph20.9 kmh 30.13 in1020.3 mb - 0.00 in0.0 mm 0.00 in0.0 mm
03:02 AM 53.4°F11.9°C 47.5°F8.6°C 80% 5.8 mph W9.3 kmh W 11.0 mph17.7 kmh 30.13 in1020.3 mb - 0.00 in0.0 mm 0.00 in0.0 mm
03:07 AM 53.6°F12.0°C 47.8°F8.8°C 81% 4.9 mph W7.9 kmh W 12.1 mph19.5 kmh 30.13 in1020.3 mb - 0.00 in0.0 mm 0.00 in0.0 mm
03:12 AM 53.6°F12.0°C 47.7°F8.7°C 80% 3.1 mph WSW5.0 kmh WSW 7.4 mph11.9 kmh 30.13 in1020.3 mb - 0.00 in0.0 mm 0.00 in0.0 mm
03:17 AM 53.6°F12.0°C 47.8°F8.8°C 81% 3.6 mph W5.8 kmh W 12.5 mph20.1 kmh 30.13 in1020.3 mb - 0.00 in0.0 mm 0.00 in0.0 mm
03:22 AM 53.8°F12.1°C 48.0°F8.9°C 81% 3.8 mph W6.1 kmh W 9.8 mph15.8 kmh 30.10 in1019.3 mb - 0.00 in0.0 mm 0.00 in0.0 mm
03:27 AM 54.0°F12.2°C 48.0°F8.9°C 80% 5.4 mph W8.7 kmh W 12.8 mph20.6 kmh 30.10 in1019.3 mb - 0.00 in0.0 mm 0.00 in0.0 mm
03:32 AM 54.0°F12.2°C 48.0°F8.9°C 80% 5.4 mph NW8.7 kmh NW 11.2 mph18.0 kmh 30.10 in1019.3 mb - 0.00 in0.0 mm 0.00 in0.0 mm
03:37 AM 54.0°F12.2°C 48.0°F8.9°C 80% 5.8 mph SW9.3 kmh SW 13.0 mph20.9 kmh 30.10 in1019.3 mb - 0.00 in0.0 mm 0.00 in0.0 mm
03:42 AM 54.0°F12.2°C 48.0°F8.9°C 80% 6.7 mph W10.8 kmh W 11.4 mph18.3 kmh 30.10 in1019.3 mb - 0.00 in0.0 mm 0.00 in0.0 mm
03:47 AM 54.1°F12.3°C 48.2°F9.0°C 80% 6.9 mph SW11.1 kmh SW 12.5 mph20.1 kmh 30.10 in1019.3 mb - 0.00 in0.0 mm 0.00 in0.0 mm
03:52 AM 54.1°F12.3°C 48.2°F9.0°C 80% 5.8 mph WSW9.3 kmh WSW 11.2 mph18.0 kmh 30.10 in1019.3 mb - 0.00 in0.0 mm 0.00 in0.0 mm
03:57 AM 54.1°F12.3°C 48.2°F9.0°C 80% 6.9 mph WNW11.1 kmh WNW 14.8 mph23.8 kmh 30.10 in1019.3 mb - 0.00 in0.0 mm 0.00 in0.0 mm
04:02 AM 54.1°F12.3°C 48.2°F9.0°C 80% 5.4 mph WNW8.7 kmh WNW 12.3 mph19.8 kmh 30.10 in1019.3 mb - 0.00 in0.0 mm 0.00 in0.0 mm
04:07 AM 54.1°F12.3°C 48.2°F9.0°C 80% 6.3 mph W10.1 kmh W 15.4 mph24.8 kmh 30.10 in1019.3 mb - 0.00 in0.0 mm 0.00 in0.0 mm
04:12 AM 54.1°F12.3°C 48.2°F9.0°C 80% 7.4 mph WNW11.9 kmh WNW 12.5 mph20.1 kmh 30.10 in1019.3 mb - 0.00 in0.0 mm 0.00 in0.0 mm
04:17 AM 54.3°F12.4°C 48.4°F9.1°C 80% 4.5 mph W7.2 kmh W 12.3 mph19.8 kmh 30.10 in1019.3 mb - 0.00 in0.0 mm 0.00 in0.0 mm
04:22 AM 54.1°F12.3°C 48.2°F9.0°C 80% 7.8 mph W12.6 kmh W 13.2 mph21.2 kmh 30.07 in1018.3 mb - 0.00 in0.0 mm 0.00 in0.0 mm
04:27 AM 54.1°F12.3°C 48.2°F9.0°C 80% 7.2 mph W11.6 kmh W 15.7 mph25.3 kmh 30.07 in1018.3 mb - 0.00 in0.0 mm 0.00 in0.0 mm
04:32 AM 54.1°F12.3°C 48.2°F9.0°C 80% 6.9 mph W11.1 kmh W 12.8 mph20.6 kmh 30.07 in1018.3 mb - 0.00 in0.0 mm 0.00 in0.0 mm
04:37 AM 54.1°F12.3°C 48.2°F9.0°C 80% 6.7 mph WNW10.8 kmh WNW 14.3 mph23.0 kmh 30.10 in1019.3 mb - 0.00 in0.0 mm 0.00 in0.0 mm
04:42 AM 54.1°F12.3°C 48.2°F9.0°C 80% 6.3 mph NW10.1 kmh NW 12.1 mph19.5 kmh 30.10 in1019.3 mb - 0.00 in0.0 mm 0.00 in0.0 mm
04:47 AM 54.1°F12.3°C 48.2°F9.0°C 80% 8.5 mph W13.7 kmh W 17.9 mph28.8 kmh 30.10 in1019.3 mb - 0.00 in0.0 mm 0.00 in0.0 mm
04:52 AM 54.1°F12.3°C 48.2°F9.0°C 80% 7.2 mph WSW11.6 kmh WSW 15.2 mph24.5 kmh 30.10 in1019.3 mb - 0.00 in0.0 mm 0.00 in0.0 mm
04:57 AM 54.3°F12.4°C 48.4°F9.1°C 80% 5.8 mph WSW9.3 kmh WSW 15.9 mph25.6 kmh 30.10 in1019.3 mb - 0.00 in0.0 mm 0.00 in0.0 mm
05:02 AM 54.3°F12.4°C 48.0°F8.9°C 79% 8.1 mph WNW13.0 kmh WNW 15.7 mph25.3 kmh 30.10 in1019.3 mb - 0.00 in0.0 mm 0.00 in0.0 mm
05:07 AM 54.3°F12.4°C 48.0°F8.9°C 79% 8.5 mph W13.7 kmh W 15.0 mph24.1 kmh 30.10 in1019.3 mb - 0.00 in0.0 mm 0.00 in0.0 mm
05:12 AM 54.5°F12.5°C 48.2°F9.0°C 79% 5.4 mph W8.7 kmh W 12.5 mph20.1 kmh 30.10 in1019.3 mb - 0.00 in0.0 mm 0.00 in0.0 mm
05:17 AM 54.5°F12.5°C 48.2°F9.0°C 79% 4.7 mph NW7.6 kmh NW 10.1 mph16.3 kmh 30.10 in1019.3 mb - 0.00 in0.0 mm 0.00 in0.0 mm
05:22 AM 54.5°F12.5°C 48.2°F9.0°C 79% 3.6 mph W5.8 kmh W 7.8 mph12.6 kmh 30.10 in1019.3 mb - 0.00 in0.0 mm 0.00 in0.0 mm
05:27 AM 54.7°F12.6°C 48.4°F9.1°C 79% 3.6 mph WNW5.8 kmh WNW 9.2 mph14.8 kmh 30.10 in1019.3 mb - 0.00 in0.0 mm 0.00 in0.0 mm
05:32 AM 54.7°F12.6°C 48.0°F8.9°C 78% 6.7 mph W10.8 kmh W 13.6 mph21.9 kmh 30.10 in1019.3 mb - 0.00 in0.0 mm 0.00 in0.0 mm
05:37 AM 54.9°F12.7°C 48.6°F9.2°C 79% 5.4 mph WNW8.7 kmh WNW 11.9 mph19.2 kmh 30.10 in1019.3 mb - 0.00 in0.0 mm 0.00 in0.0 mm
05:42 AM 54.7°F12.6°C 48.4°F9.1°C 79% 7.2 mph W11.6 kmh W 13.0 mph20.9 kmh 30.10 in1019.3 mb - 0.00 in0.0 mm 0.00 in0.0 mm
05:47 AM 54.9°F12.7°C 48.6°F9.2°C 79% 6.9 mph WSW11.1 kmh WSW 17.0 mph27.4 kmh 30.10 in1019.3 mb - 0.00 in0.0 mm 0.00 in0.0 mm
05:52 AM 54.9°F12.7°C 48.6°F9.2°C 79% 6.9 mph SW11.1 kmh SW 14.8 mph23.8 kmh 30.10 in1019.3 mb - 0.00 in0.0 mm 0.00 in0.0 mm
05:57 AM 54.9°F12.7°C 48.6°F9.2°C 79% 5.4 mph WSW8.7 kmh WSW 17.4 mph28.0 kmh 30.10 in1019.3 mb - 0.00 in0.0 mm 0.00 in0.0 mm
06:02 AM 54.7°F12.6°C 48.4°F9.1°C 79% 5.1 mph WNW8.2 kmh WNW 13.6 mph21.9 kmh 30.10 in1019.3 mb - 0.00 in0.0 mm 0.00 in0.0 mm
06:07 AM 54.7°F12.6°C 48.6°F9.2°C 80% 3.8 mph NNW6.1 kmh NNW 7.8 mph12.6 kmh 30.10 in1019.3 mb - 0.00 in0.0 mm 0.00 in0.0 mm
06:12 AM 54.7°F12.6°C 48.6°F9.2°C 80% 4.9 mph NW7.9 kmh NW 13.2 mph21.2 kmh 30.10 in1019.3 mb - 0.00 in0.0 mm 0.00 in0.0 mm
06:17 AM 54.7°F12.6°C 48.6°F9.2°C 80% 5.4 mph NW8.7 kmh NW 13.6 mph21.9 kmh 30.10 in1019.3 mb - 0.00 in0.0 mm 0.00 in0.0 mm
06:22 AM 54.5°F12.5°C 48.7°F9.3°C 81% 7.6 mph NW12.2 kmh NW 18.1 mph29.1 kmh 30.07 in1018.3 mb - 0.00 in0.0 mm 0.00 in0.0 mm
06:27 AM 54.3°F12.4°C 48.9°F9.4°C 82% 6.5 mph SW10.5 kmh SW 15.4 mph24.8 kmh 30.07 in1018.3 mb - 0.00 in0.0 mm 0.00 in0.0 mm
06:32 AM 54.3°F12.4°C 48.9°F9.4°C 82% 6.5 mph WSW10.5 kmh WSW 15.9 mph25.6 kmh 30.07 in1018.3 mb - 0.00 in0.0 mm 0.00 in0.0 mm
06:37 AM 54.3°F12.4°C 48.9°F9.4°C 82% 3.8 mph NW6.1 kmh NW 11.6 mph18.7 kmh 30.10 in1019.3 mb - 0.00 in0.0 mm 0.00 in0.0 mm
06:42 AM 54.3°F12.4°C 48.9°F9.4°C 82% 6.3 mph NW10.1 kmh NW 13.4 mph21.6 kmh 30.10 in1019.3 mb - 0.00 in0.0 mm 0.00 in0.0 mm
06:47 AM 54.3°F12.4°C 48.9°F9.4°C 82% 4.0 mph NW6.4 kmh NW 10.1 mph16.3 kmh 30.10 in1019.3 mb - 0.00 in0.0 mm 0.00 in0.0 mm
06:52 AM 54.5°F12.5°C 49.5°F9.7°C 83% 5.1 mph NW8.2 kmh NW 11.4 mph18.3 kmh 30.07 in1018.3 mb - 0.00 in0.0 mm 0.00 in0.0 mm
06:57 AM 54.5°F12.5°C 49.1°F9.5°C 82% 4.3 mph WSW6.9 kmh WSW 12.5 mph20.1 kmh 30.07 in1018.3 mb - 0.00 in0.0 mm 0.00 in0.0 mm
07:02 AM 54.5°F12.5°C 49.1°F9.5°C 82% 5.6 mph NW9.0 kmh NW 13.0 mph20.9 kmh 30.07 in1018.3 mb - 0.00 in0.0 mm 0.00 in0.0 mm
07:07 AM 54.5°F12.5°C 49.1°F9.5°C 82% 3.1 mph W5.0 kmh W 10.5 mph16.9 kmh 30.07 in1018.3 mb - 0.00 in0.0 mm 0.00 in0.0 mm
07:12 AM 54.5°F12.5°C 49.5°F9.7°C 83% 4.7 mph W7.6 kmh W 10.7 mph17.2 kmh 30.07 in1018.3 mb - 0.00 in0.0 mm 0.00 in0.0 mm
07:17 AM 54.7°F12.6°C 49.3°F9.6°C 82% 6.3 mph WSW10.1 kmh WSW 12.8 mph20.6 kmh 30.07 in1018.3 mb - 0.00 in0.0 mm 0.00 in0.0 mm
07:22 AM 54.7°F12.6°C 49.3°F9.6°C 82% 7.8 mph W12.6 kmh W 17.4 mph28.0 kmh 30.10 in1019.3 mb - 0.00 in0.0 mm 0.00 in0.0 mm
07:27 AM 54.9°F12.7°C 49.1°F9.5°C 81% 8.9 mph WSW14.3 kmh WSW 15.2 mph24.5 kmh 30.10 in1019.3 mb - 0.00 in0.0 mm 0.00 in0.0 mm
07:32 AM 54.9°F12.7°C 49.1°F9.5°C 81% 8.1 mph WSW13.0 kmh WSW 8.1 mph13.0 kmh 30.10 in1019.3 mb - 0.00 in0.0 mm 0.00 in0.0 mm
07:37 AM 54.9°F12.7°C 49.1°F9.5°C 81% 7.4 mph W11.9 kmh W 15.9 mph25.6 kmh 30.07 in1018.3 mb - 0.00 in0.0 mm 0.00 in0.0 mm
07:42 AM 54.9°F12.7°C 49.1°F9.5°C 81% 8.7 mph WSW14.0 kmh WSW 16.1 mph25.9 kmh 30.07 in1018.3 mb - 0.00 in0.0 mm 0.00 in0.0 mm
07:47 AM 54.9°F12.7°C 49.1°F9.5°C 81% 7.6 mph WNW12.2 kmh WNW 18.8 mph30.3 kmh 30.07 in1018.3 mb - 0.00 in0.0 mm 0.00 in0.0 mm
07:52 AM 54.9°F12.7°C 48.7°F9.3°C 80% 7.2 mph WSW11.6 kmh WSW 15.2 mph24.5 kmh 30.10 in1019.3 mb - 0.00 in0.0 mm 0.00 in0.0 mm
07:57 AM 54.9°F12.7°C 48.7°F9.3°C 80% 7.6 mph WSW12.2 kmh WSW 17.7 mph28.5 kmh 30.10 in1019.3 mb - 0.00 in0.0 mm 0.00 in0.0 mm
08:02 AM 55.0°F12.8°C 48.7°F9.3°C 79% 7.6 mph WSW12.2 kmh WSW 20.4 mph32.8 kmh 30.10 in1019.3 mb - 0.00 in0.0 mm 0.00 in0.0 mm
08:07 AM 55.2°F12.9°C 48.6°F9.2°C 78% 7.4 mph WSW11.9 kmh WSW 16.6 mph26.7 kmh 30.10 in1019.3 mb - 0.00 in0.0 mm 0.00 in0.0 mm
08:12 AM 55.4°F13.0°C 48.4°F9.1°C 77% 8.7 mph W14.0 kmh W 15.2 mph24.5 kmh 30.10 in1019.3 mb - 0.00 in0.0 mm 0.00 in0.0 mm
08:17 AM 55.4°F13.0°C 48.0°F8.9°C 76% 8.9 mph W14.3 kmh W 16.3 mph26.2 kmh 30.10 in1019.3 mb - 0.00 in0.0 mm 0.00 in0.0 mm
08:22 AM 55.6°F13.1°C 48.2°F9.0°C 76% 8.7 mph SW14.0 kmh SW 17.7 mph28.5 kmh 30.10 in1019.3 mb - 0.00 in0.0 mm 0.00 in0.0 mm
08:27 AM 55.6°F13.1°C 48.2°F9.0°C 76% 9.6 mph WNW15.4 kmh WNW 18.8 mph30.3 kmh 30.10 in1019.3 mb - 0.00 in0.0 mm 0.00 in0.0 mm
08:32 AM 55.6°F13.1°C 48.2°F9.0°C 76% 6.7 mph W10.8 kmh W 13.2 mph21.2 kmh 30.10 in1019.3 mb - 0.00 in0.0 mm 0.00 in0.0 mm
08:37 AM 55.6°F13.1°C 48.2°F9.0°C 76% 9.2 mph NW14.8 kmh NW 17.0 mph27.4 kmh 30.13 in1020.3 mb - 0.00 in0.0 mm 0.00 in0.0 mm
08:42 AM 55.6°F13.1°C 48.6°F9.2°C 77% 7.2 mph WSW11.6 kmh WSW 15.9 mph25.6 kmh 30.13 in1020.3 mb - 0.00 in0.0 mm 0.00 in0.0 mm
08:47 AM 55.6°F13.1°C 48.6°F9.2°C 77% 6.3 mph SW10.1 kmh SW 12.1 mph19.5 kmh 30.13 in1020.3 mb - 0.00 in0.0 mm 0.00 in0.0 mm
08:52 AM 55.8°F13.2°C 48.7°F9.3°C 77% 7.8 mph WSW12.6 kmh WSW 16.3 mph26.2 kmh 30.10 in1019.3 mb - 0.00 in0.0 mm 0.00 in0.0 mm
08:57 AM 55.8°F13.2°C 48.4°F9.1°C 76% 6.5 mph W10.5 kmh W 13.6 mph21.9 kmh 30.10 in1019.3 mb - 0.00 in0.0 mm 0.00 in0.0 mm
09:02 AM 55.8°F13.2°C 48.4°F9.1°C 76% 8.9 mph NW14.3 kmh NW 17.0 mph27.4 kmh 30.10 in1019.3 mb - 0.00 in0.0 mm 0.00 in0.0 mm
09:07 AM 55.8°F13.2°C 48.7°F9.3°C 77% 9.2 mph WNW14.8 kmh WNW 16.1 mph25.9 kmh 30.13 in1020.3 mb - 0.00 in0.0 mm 0.00 in0.0 mm
09:12 AM 55.6°F13.1°C 48.6°F9.2°C 77% 7.4 mph NW11.9 kmh NW 14.3 mph23.0 kmh 30.13 in1020.3 mb - 0.00 in0.0 mm 0.00 in0.0 mm
09:17 AM 55.6°F13.1°C 48.6°F9.2°C 77% 8.7 mph W14.0 kmh W 18.8 mph30.3 kmh 30.13 in1020.3 mb - 0.00 in0.0 mm 0.00 in0.0 mm
09:22 AM 55.6°F13.1°C 48.6°F9.2°C 77% 8.5 mph W13.7 kmh W 15.9 mph25.6 kmh 30.13 in1020.3 mb - 0.00 in0.0 mm 0.00 in0.0 mm
09:27 AM 55.8°F13.2°C 48.7°F9.3°C 77% 6.5 mph SW10.5 kmh SW 14.3 mph23.0 kmh 30.13 in1020.3 mb - 0.00 in0.0 mm 0.00 in0.0 mm
09:32 AM 55.9°F13.3°C 48.9°F9.4°C 77% 6.5 mph WNW10.5 kmh WNW 13.9 mph22.4 kmh 30.13 in1020.3 mb - 0.00 in0.0 mm 0.00 in0.0 mm
09:37 AM 55.9°F13.3°C 48.2°F9.0°C 75% 5.8 mph NW9.3 kmh NW 10.3 mph16.6 kmh 30.13 in1020.3 mb - 0.00 in0.0 mm 0.00 in0.0 mm
09:42 AM 56.1°F13.4°C 48.4°F9.1°C 75% 5.6 mph WNW9.0 kmh WNW 14.5 mph23.3 kmh 30.13 in1020.3 mb - 0.00 in0.0 mm 0.00 in0.0 mm
09:47 AM 55.9°F13.3°C 48.2°F9.0°C 75% 9.8 mph WSW15.8 kmh WSW 20.6 mph33.2 kmh 30.13 in1020.3 mb - 0.00 in0.0 mm 0.00 in0.0 mm
09:52 AM 56.1°F13.4°C 48.7°F9.3°C 76% 8.9 mph WNW14.3 kmh WNW 22.1 mph35.6 kmh 30.13 in1020.3 mb - 0.00 in0.0 mm 0.00 in0.0 mm
09:57 AM 56.3°F13.5°C 48.6°F9.2°C 75% 7.6 mph WNW12.2 kmh WNW 16.6 mph26.7 kmh 30.13 in1020.3 mb - 0.00 in0.0 mm 0.00 in0.0 mm
10:02 AM 56.3°F13.5°C 48.6°F9.2°C 75% 8.1 mph NW13.0 kmh NW 18.3 mph29.5 kmh 30.13 in1020.3 mb - 0.00 in0.0 mm 0.00 in0.0 mm
10:07 AM 56.3°F13.5°C 48.2°F9.0°C 74% 9.2 mph WSW14.8 kmh WSW 17.4 mph28.0 kmh 30.13 in1020.3 mb - 0.00 in0.0 mm 0.00 in0.0 mm
10:12 AM 56.3°F13.5°C 48.6°F9.2°C 75% 10.1 mph NW16.3 kmh NW 18.3 mph29.5 kmh 30.13 in1020.3 mb - 0.00 in0.0 mm 0.00 in0.0 mm
10:17 AM 56.3°F13.5°C 48.6°F9.2°C 75% 11.2 mph NW18.0 kmh NW 20.4 mph32.8 kmh 30.13 in1020.3 mb - 0.00 in0.0 mm 0.00 in0.0 mm
10:22 AM 56.5°F13.6°C 48.7°F9.3°C 75% 11.4 mph W18.3 kmh W 27.1 mph43.6 kmh 30.10 in1019.3 mb - 0.00 in0.0 mm 0.00 in0.0 mm
10:27 AM 56.5°F13.6°C 48.7°F9.3°C 75% 8.7 mph NW14.0 kmh NW 17.4 mph28.0 kmh 30.10 in1019.3 mb - 0.00 in0.0 mm 0.00 in0.0 mm
10:32 AM 56.5°F13.6°C 48.4°F9.1°C 74% 9.6 mph NW15.4 kmh NW 18.1 mph29.1 kmh 30.10 in1019.3 mb - 0.00 in0.0 mm 0.00 in0.0 mm
10:37 AM 56.7°F13.7°C 48.6°F9.2°C 74% 9.6 mph WNW15.4 kmh WNW 19.0 mph30.6 kmh 30.10 in1019.3 mb - 0.00 in0.0 mm 0.00 in0.0 mm
10:42 AM 56.7°F13.7°C 48.6°F9.2°C 74% 10.3 mph NW16.6 kmh NW 19.2 mph30.9 kmh 30.10 in1019.3 mb - 0.00 in0.0 mm 0.00 in0.0 mm
10:47 AM 56.7°F13.7°C 48.6°F9.2°C 74% 10.3 mph WSW16.6 kmh WSW 28.0 mph45.1 kmh 30.10 in1019.3 mb - 0.00 in0.0 mm 0.00 in0.0 mm
10:52 AM 56.8°F13.8°C 48.2°F9.0°C 73% 9.2 mph NW14.8 kmh NW 18.1 mph29.1 kmh 30.13 in1020.3 mb - 0.00 in0.0 mm 0.00 in0.0 mm
10:57 AM 57.0°F13.9°C 48.7°F9.3°C 74% 11.0 mph NW17.7 kmh NW 21.5 mph34.6 kmh 30.13 in1020.3 mb - 0.00 in0.0 mm 0.00 in0.0 mm
11:02 AM 57.2°F14.0°C 48.9°F9.4°C 74% 8.9 mph WNW14.3 kmh WNW 18.1 mph29.1 kmh 30.13 in1020.3 mb - 0.00 in0.0 mm 0.00 in0.0 mm
11:07 AM 57.2°F14.0°C 48.2°F9.0°C 72% 4.5 mph NW7.2 kmh NW 12.1 mph19.5 kmh 30.10 in1019.3 mb - 0.00 in0.0 mm 0.00 in0.0 mm
11:12 AM 57.4°F14.1°C 48.4°F9.1°C 72% 8.1 mph NW13.0 kmh NW 17.7 mph28.5 kmh 30.10 in1019.3 mb - 0.00 in0.0 mm 0.00 in0.0 mm
11:17 AM 57.4°F14.1°C 48.0°F8.9°C 71% 9.6 mph WNW15.4 kmh WNW 19.2 mph30.9 kmh 30.10 in1019.3 mb - 0.00 in0.0 mm 0.00 in0.0 mm
11:22 AM 57.4°F14.1°C 48.0°F8.9°C 71% 9.8 mph WNW15.8 kmh WNW 20.4 mph32.8 kmh 30.13 in1020.3 mb - 0.00 in0.0 mm 0.00 in0.0 mm
11:27 AM 57.4°F14.1°C 48.4°F9.1°C 72% 9.8 mph NW15.8 kmh NW 18.6 mph29.9 kmh 30.13 in1020.3 mb - 0.00 in0.0 mm 0.00 in0.0 mm
11:32 AM 57.7°F14.3°C 48.7°F9.3°C 72% 10.7 mph WNW17.2 kmh WNW 20.1 mph32.3 kmh 30.13 in1020.3 mb - 0.00 in0.0 mm 0.00 in0.0 mm
11:37 AM 57.9°F14.4°C 48.6°F9.2°C 71% 7.8 mph W12.6 kmh W 12.8 mph20.6 kmh 30.10 in1019.3 mb - 0.00 in0.0 mm 0.00 in0.0 mm
11:42 AM 57.9°F14.4°C 48.6°F9.2°C 71% 9.4 mph WNW15.1 kmh WNW 18.6 mph29.9 kmh 30.10 in1019.3 mb - 0.00 in0.0 mm 0.00 in0.0 mm
11:47 AM 58.1°F14.5°C 48.4°F9.1°C 70% 8.9 mph WSW14.3 kmh WSW 8.9 mph14.3 kmh 30.10 in1019.3 mb - 0.00 in0.0 mm 0.00 in0.0 mm
11:52 AM 58.8°F14.9°C 48.7°F9.3°C 69% 9.2 mph WSW14.8 kmh WSW 20.8 mph33.5 kmh 30.10 in1019.3 mb - 0.00 in0.0 mm 0.00 in0.0 mm
11:57 AM 59.5°F15.3°C 48.9°F9.4°C 68% 9.6 mph W15.4 kmh W 16.6 mph26.7 kmh 30.10 in1019.3 mb - 0.00 in0.0 mm 0.00 in0.0 mm
12:02 PM 59.0°F15.0°C 48.0°F8.9°C 67% 8.9 mph W14.3 kmh W 19.5 mph31.4 kmh 30.10 in1019.3 mb - 0.00 in0.0 mm 0.00 in0.0 mm
12:07 PM 59.0°F15.0°C 48.0°F8.9°C 67% 11.6 mph W18.7 kmh W 28.9 mph46.5 kmh 30.10 in1019.3 mb - 0.00 in0.0 mm 0.00 in0.0 mm
12:12 PM 58.8°F14.9°C 47.8°F8.8°C 67% 8.1 mph WSW13.0 kmh WSW 19.2 mph30.9 kmh 30.10 in1019.3 mb - 0.00 in0.0 mm 0.00 in0.0 mm
12:17 PM 58.5°F14.7°C 47.5°F8.6°C 67% 9.8 mph WNW15.8 kmh WNW 21.7 mph34.9 kmh 30.10 in1019.3 mb - 0.00 in0.0 mm 0.00 in0.0 mm
12:22 PM 58.3°F14.6°C 47.8°F8.8°C 68% 10.1 mph NW16.3 kmh NW 23.3 mph37.5 kmh 30.10 in1019.3 mb - 0.00 in0.0 mm 0.00 in0.0 mm
12:27 PM 58.3°F14.6°C 48.2°F9.0°C 69% 9.8 mph NW15.8 kmh NW 18.6 mph29.9 kmh 30.10 in1019.3 mb - 0.00 in0.0 mm 0.00 in0.0 mm
12:32 PM 57.6°F14.2°C 48.9°F9.4°C 73% 11.0 mph WNW17.7 kmh WNW 18.8 mph30.3 kmh 30.10 in1019.3 mb - 0.00 in0.0 mm 0.00 in0.0 mm
12:37 PM 56.3°F13.5°C 47.8°F8.8°C 73% 7.8 mph NW12.6 kmh NW 18.1 mph29.1 kmh 30.10 in1019.3 mb - 0.00 in0.0 mm 0.00 in0.0 mm
12:42 PM 55.2°F12.9°C 47.5°F8.6°C 75% 5.8 mph WNW9.3 kmh WNW 12.5 mph20.1 kmh 30.10 in1019.3 mb - 0.00 in0.0 mm 0.00 in0.0 mm
12:47 PM 54.9°F12.7°C 47.5°F8.6°C 76% 3.8 mph WNW6.1 kmh WNW 12.1 mph19.5 kmh 30.10 in1019.3 mb - 0.00 in0.0 mm 0.00 in0.0 mm
12:52 PM 54.7°F12.6°C 47.7°F8.7°C 77% 3.6 mph NNE5.8 kmh NNE 10.3 mph16.6 kmh 30.07 in1018.3 mb - 0.00 in0.0 mm 0.00 in0.0 mm
12:57 PM 54.0°F12.2°C 46.9°F8.3°C 77% 2.0 mph WSW3.2 kmh WSW 7.2 mph11.6 kmh 30.07 in1018.3 mb - 0.00 in0.0 mm 0.00 in0.0 mm
01:02 PM 54.0°F12.2°C 47.3°F8.5°C 78% 6.3 mph WNW10.1 kmh WNW 13.4 mph21.6 kmh 30.07 in1018.3 mb - 0.00 in0.0 mm 0.00 in0.0 mm
01:07 PM 54.0°F12.2°C 46.9°F8.3°C 77% 7.8 mph NW12.6 kmh NW 13.6 mph21.9 kmh 30.07 in1018.3 mb - 0.00 in0.0 mm 0.00 in0.0 mm
01:12 PM 54.1°F12.3°C 47.1°F8.4°C 77% 7.4 mph W11.9 kmh W 7.4 mph11.9 kmh 30.07 in1018.3 mb - 0.00 in0.0 mm 0.00 in0.0 mm
01:17 PM 54.3°F12.4°C 47.7°F8.7°C 78% 4.9 mph NW7.9 kmh NW 9.6 mph15.4 kmh 30.07 in1018.3 mb - 0.00 in0.0 mm 0.00 in0.0 mm
01:22 PM 54.1°F12.3°C 47.5°F8.6°C 78% 6.5 mph NNW10.5 kmh NNW 15.0 mph24.1 kmh 30.07 in1018.3 mb - 0.00 in0.0 mm 0.00 in0.0 mm
01:27 PM 54.1°F12.3°C 47.8°F8.8°C 79% 6.9 mph W11.1 kmh W 12.1 mph19.5 kmh 30.07 in1018.3 mb - 0.00 in0.0 mm 0.00 in0.0 mm
01:32 PM 54.0°F12.2°C 47.7°F8.7°C 79% 8.3 mph WNW13.4 kmh WNW 17.0 mph27.4 kmh 30.07 in1018.3 mb - 0.00 in0.0 mm 0.00 in0.0 mm
01:37 PM 54.0°F12.2°C 48.0°F8.9°C 80% 6.5 mph WNW10.5 kmh WNW 12.3 mph19.8 kmh 30.10 in1019.3 mb - 0.00 in0.0 mm 0.00 in0.0 mm
01:42 PM 54.1°F12.3°C 48.4°F9.1°C 81% 6.5 mph SW10.5 kmh SW 12.8 mph20.6 kmh 30.10 in1019.3 mb - 0.00 in0.0 mm 0.00 in0.0 mm
01:47 PM 54.1°F12.3°C 48.7°F9.3°C 82% 6.9 mph NW11.1 kmh NW 14.1 mph22.7 kmh 30.10 in1019.3 mb - 0.00 in0.0 mm 0.00 in0.0 mm
01:52 PM 54.3°F12.4°C 48.9°F9.4°C 82% 5.8 mph WNW9.3 kmh WNW 13.6 mph21.9 kmh 30.10 in1019.3 mb - 0.00 in0.0 mm 0.00 in0.0 mm
01:57 PM 54.5°F12.5°C 48.4°F9.1°C 80% 6.7 mph WSW10.8 kmh WSW 12.8 mph20.6 kmh 30.10 in1019.3 mb - 0.00 in0.0 mm 0.00 in0.0 mm
02:02 PM 55.2°F12.9°C 48.9°F9.4°C 79% 7.8 mph WSW12.6 kmh WSW 12.5 mph20.1 kmh 30.10 in1019.3 mb - 0.00 in0.0 mm 0.00 in0.0 mm
02:07 PM 55.4°F13.0°C 48.7°F9.3°C 78% 6.0 mph WSW9.7 kmh WSW 11.6 mph18.7 kmh 30.10 in1019.3 mb - 0.00 in0.0 mm 0.00 in0.0 mm
02:12 PM 55.6°F13.1°C 47.8°F8.8°C 75% 6.5 mph WNW10.5 kmh WNW 12.1 mph19.5 kmh 30.10 in1019.3 mb - 0.00 in0.0 mm 0.00 in0.0 mm
02:17 PM 55.9°F13.3°C 47.8°F8.8°C 74% 6.3 mph SW10.1 kmh SW 14.1 mph22.7 kmh 30.10 in1019.3 mb - 0.00 in0.0 mm 0.00 in0.0 mm
02:22 PM 56.3°F13.5°C 48.6°F9.2°C 75% 6.9 mph WSW11.1 kmh WSW 13.2 mph21.2 kmh 30.10 in1019.3 mb - 0.00 in0.0 mm 0.00 in0.0 mm
02:27 PM 56.5°F13.6°C 48.0°F8.9°C 73% 8.1 mph WNW13.0 kmh WNW 15.0 mph24.1 kmh 30.10 in1019.3 mb - 0.00 in0.0 mm 0.00 in0.0 mm
02:32 PM 56.8°F13.8°C 47.8°F8.8°C 72% 6.3 mph W10.1 kmh W 13.0 mph20.9 kmh 30.10 in1019.3 mb - 0.00 in0.0 mm 0.00 in0.0 mm
02:37 PM 57.2°F14.0°C 48.6°F9.2°C 73% 7.8 mph W12.6 kmh W 14.5 mph23.3 kmh 30.10 in1019.3 mb - 0.00 in0.0 mm 0.00 in0.0 mm
02:42 PM 57.2°F14.0°C 47.8°F8.8°C 71% 6.9 mph WNW11.1 kmh WNW 11.4 mph18.3 kmh 30.10 in1019.3 mb - 0.00 in0.0 mm 0.00 in0.0 mm
02:47 PM 57.4°F14.1°C 47.7°F8.7°C 70% 6.3 mph WNW10.1 kmh WNW 13.9 mph22.4 kmh 30.10 in1019.3 mb - 0.00 in0.0 mm 0.00 in0.0 mm
02:52 PM 57.4°F14.1°C 47.7°F8.7°C 70% 6.7 mph WNW10.8 kmh WNW 13.2 mph21.2 kmh 30.10 in1019.3 mb - 0.00 in0.0 mm 0.00 in0.0 mm
02:57 PM 57.6°F14.2°C 47.5°F8.6°C 69% 7.6 mph WSW12.2 kmh WSW 7.6 mph12.2 kmh 30.10 in1019.3 mb - 0.00 in0.0 mm 0.00 in0.0 mm
03:02 PM 57.6°F14.2°C 47.5°F8.6°C 69% 7.6 mph WNW12.2 kmh WNW 13.9 mph22.4 kmh 30.10 in1019.3 mb - 0.00 in0.0 mm 0.00 in0.0 mm
03:07 PM 57.6°F14.2°C 47.1°F8.4°C 68% 6.9 mph WNW11.1 kmh WNW 12.5 mph20.1 kmh 30.07 in1018.3 mb - 0.00 in0.0 mm 0.00 in0.0 mm
03:12 PM 57.6°F14.2°C 47.1°F8.4°C 68% 9.6 mph W15.4 kmh W 16.6 mph26.7 kmh 30.07 in1018.3 mb - 0.00 in0.0 mm 0.00 in0.0 mm
03:17 PM 57.7°F14.3°C 47.3°F8.5°C 68% 6.0 mph SW9.7 kmh SW 11.4 mph18.3 kmh 30.07 in1018.3 mb - 0.00 in0.0 mm 0.00 in0.0 mm
03:22 PM 57.7°F14.3°C 47.3°F8.5°C 68% 6.0 mph W9.7 kmh W 12.5 mph20.1 kmh 30.10 in1019.3 mb - 0.00 in0.0 mm 0.00 in0.0 mm
03:27 PM 57.7°F14.3°C 47.3°F8.5°C 68% 7.2 mph W11.6 kmh W 17.7 mph28.5 kmh 30.10 in1019.3 mb - 0.00 in0.0 mm 0.00 in0.0 mm
03:32 PM 57.7°F14.3°C 46.9°F8.3°C 67% 6.9 mph WSW11.1 kmh WSW 13.0 mph20.9 kmh 30.10 in1019.3 mb - 0.00 in0.0 mm 0.00 in0.0 mm
03:37 PM 57.7°F14.3°C 46.9°F8.3°C 67% 8.5 mph W13.7 kmh W 16.6 mph26.7 kmh 30.10 in1019.3 mb - 0.00 in0.0 mm 0.00 in0.0 mm
03:42 PM 57.9°F14.4°C 47.1°F8.4°C 67% 8.7 mph W14.0 kmh W 16.1 mph25.9 kmh 30.10 in1019.3 mb - 0.00 in0.0 mm 0.00 in0.0 mm
03:47 PM 57.9°F14.4°C 46.6°F8.1°C 66% 8.1 mph W13.0 kmh W 14.8 mph23.8 kmh 30.10 in1019.3 mb - 0.00 in0.0 mm 0.00 in0.0 mm
03:52 PM 57.9°F14.4°C 46.6°F8.1°C 66% 6.9 mph WSW11.1 kmh WSW 13.4 mph21.6 kmh 30.10 in1019.3 mb - 0.00 in0.0 mm 0.00 in0.0 mm
03:57 PM 57.7°F14.3°C 45.7°F7.6°C 64% 7.8 mph SW12.6 kmh SW 17.4 mph28.0 kmh 30.10 in1019.3 mb - 0.00 in0.0 mm 0.00 in0.0 mm
04:02 PM 57.6°F14.2°C 45.1°F7.3°C 63% 5.8 mph W9.3 kmh W 12.1 mph19.5 kmh 30.10 in1019.3 mb - 0.00 in0.0 mm 0.00 in0.0 mm
04:07 PM 57.4°F14.1°C 45.0°F7.2°C 63% 5.1 mph WNW8.2 kmh WNW 14.1 mph22.7 kmh 30.10 in1019.3 mb - 0.00 in0.0 mm 0.00 in0.0 mm
04:12 PM 57.4°F14.1°C 45.3°F7.4°C 64% 9.2 mph WNW14.8 kmh WNW 17.0 mph27.4 kmh 30.10 in1019.3 mb - 0.00 in0.0 mm 0.00 in0.0 mm
04:17 PM 57.2°F14.0°C 45.1°F7.3°C 64% 8.3 mph W13.4 kmh W 13.2 mph21.2 kmh 30.10 in1019.3 mb - 0.00 in0.0 mm 0.00 in0.0 mm
04:22 PM 57.2°F14.0°C 45.5°F7.5°C 65% 8.3 mph WNW13.4 kmh WNW 14.8 mph23.8 kmh 30.10 in1019.3 mb - 0.00 in0.0 mm 0.00 in0.0 mm
04:27 PM 57.0°F13.9°C 45.3°F7.4°C 65% 8.9 mph WNW14.3 kmh WNW 19.5 mph31.4 kmh 30.10 in1019.3 mb - 0.00 in0.0 mm 0.00 in0.0 mm
04:32 PM 57.0°F13.9°C 45.9°F7.7°C 66% 6.9 mph WSW11.1 kmh WSW 14.8 mph23.8 kmh 30.10 in1019.3 mb - 0.00 in0.0 mm 0.00 in0.0 mm
04:37 PM 56.7°F13.7°C 45.9°F7.7°C 67% 7.8 mph WSW12.6 kmh WSW 16.3 mph26.2 kmh 30.10 in1019.3 mb - 0.00 in0.0 mm 0.00 in0.0 mm
04:42 PM 56.5°F13.6°C 46.0°F7.8°C 68% 6.9 mph W11.1 kmh W 13.0 mph20.9 kmh 30.10 in1019.3 mb - 0.00 in0.0 mm 0.00 in0.0 mm
04:47 PM 56.3°F13.5°C 46.2°F7.9°C 69% 8.5 mph WSW13.7 kmh WSW 17.9 mph28.8 kmh 30.10 in1019.3 mb - 0.00 in0.0 mm 0.00 in0.0 mm
04:52 PM 56.1°F13.4°C 46.4°F8.0°C 70% 9.4 mph WSW15.1 kmh WSW 13.4 mph21.6 kmh 30.13 in1020.3 mb - 0.00 in0.0 mm 0.00 in0.0 mm
04:57 PM 56.1°F13.4°C 46.4°F8.0°C 70% 6.9 mph W11.1 kmh W 13.9 mph22.4 kmh 30.13 in1020.3 mb - 0.00 in0.0 mm 0.00 in0.0 mm
05:02 PM 55.9°F13.3°C 46.4°F8.0°C 70% 8.7 mph WSW14.0 kmh WSW 13.6 mph21.9 kmh 30.13 in1020.3 mb - 0.00 in0.0 mm 0.00 in0.0 mm
05:07 PM 55.9°F13.3°C 45.9°F7.7°C 69% 8.1 mph W13.0 kmh W 13.4 mph21.6 kmh 30.13 in1020.3 mb - 0.00 in0.0 mm 0.00 in0.0 mm
05:12 PM 55.9°F13.3°C 45.5°F7.5°C 68% 5.8 mph WNW9.3 kmh WNW 10.7 mph17.2 kmh 30.13 in1020.3 mb - 0.00 in0.0 mm 0.00 in0.0 mm
05:17 PM 55.9°F13.3°C 45.1°F7.3°C 67% 6.9 mph WSW11.1 kmh WSW 12.8 mph20.6 kmh 30.13 in1020.3 mb - 0.00 in0.0 mm 0.00 in0.0 mm
05:22 PM 55.9°F13.3°C 44.8°F7.1°C 66% 8.1 mph W13.0 kmh W 12.1 mph19.5 kmh 30.13 in1020.3 mb - 0.00 in0.0 mm 0.00 in0.0 mm
05:27 PM 55.9°F13.3°C 44.8°F7.1°C 66% 6.5 mph W10.5 kmh W 13.6 mph21.9 kmh 30.13 in1020.3 mb - 0.00 in0.0 mm 0.00 in0.0 mm
05:32 PM 55.9°F13.3°C 44.8°F7.1°C 66% 6.9 mph WSW11.1 kmh WSW 12.3 mph19.8 kmh 30.13 in1020.3 mb - 0.00 in0.0 mm 0.00 in0.0 mm
05:37 PM 55.9°F13.3°C 44.8°F7.1°C 66% 4.3 mph WSW6.9 kmh WSW 9.2 mph14.8 kmh 30.16 in1021.3 mb - 0.00 in0.0 mm 0.00 in0.0 mm
05:42 PM 55.9°F13.3°C 44.8°F7.1°C 66% 3.6 mph W5.8 kmh W 11.9 mph19.2 kmh 30.16 in1021.3 mb - 0.00 in0.0 mm 0.00 in0.0 mm
05:47 PM 55.8°F13.2°C 43.7°F6.5°C 64% 3.8 mph W6.1 kmh W 8.7 mph14.0 kmh 30.16 in1021.3 mb - 0.00 in0.0 mm 0.00 in0.0 mm
05:52 PM 55.9°F13.3°C 43.5°F6.4°C 63% 4.7 mph NW7.6 kmh NW 12.3 mph19.8 kmh 30.16 in1021.3 mb - 0.00 in0.0 mm 0.00 in0.0 mm
05:57 PM 55.8°F13.2°C 43.0°F6.1°C 62% 7.2 mph NW11.6 kmh NW 15.2 mph24.5 kmh 30.16 in1021.3 mb - 0.00 in0.0 mm 0.00 in0.0 mm
06:02 PM 55.8°F13.2°C 43.0°F6.1°C 62% 8.3 mph NW13.4 kmh NW 18.1 mph29.1 kmh 30.16 in1021.3 mb - 0.00 in0.0 mm 0.00 in0.0 mm
06:07 PM 55.6°F13.1°C 42.8°F6.0°C 62% 5.8 mph NW9.3 kmh NW 15.7 mph25.3 kmh 30.16 in1021.3 mb - 0.00 in0.0 mm 0.00 in0.0 mm
06:12 PM 55.6°F13.1°C 43.2°F6.2°C 63% 4.0 mph WSW6.4 kmh WSW 11.6 mph18.7 kmh 30.16 in1021.3 mb - 0.00 in0.0 mm 0.00 in0.0 mm
06:17 PM 55.4°F13.0°C 43.0°F6.1°C 63% 3.8 mph W6.1 kmh W 10.5 mph16.9 kmh 30.16 in1021.3 mb - 0.00 in0.0 mm 0.00 in0.0 mm
06:22 PM 55.4°F13.0°C 42.6°F5.9°C 62% 6.7 mph WSW10.8 kmh WSW 13.0 mph20.9 kmh 30.13 in1020.3 mb - 0.00 in0.0 mm 0.00 in0.0 mm
06:27 PM 55.2°F12.9°C 42.4°F5.8°C 62% 5.6 mph WSW9.0 kmh WSW 11.6 mph18.7 kmh 30.13 in1020.3 mb - 0.00 in0.0 mm 0.00 in0.0 mm
06:32 PM 55.0°F12.8°C 42.3°F5.7°C 62% 5.8 mph WNW9.3 kmh WNW 14.8 mph23.8 kmh 30.13 in1020.3 mb - 0.00 in0.0 mm 0.00 in0.0 mm
06:37 PM 54.9°F12.7°C 42.1°F5.6°C 62% 6.9 mph WSW11.1 kmh WSW 11.9 mph19.2 kmh 30.16 in1021.3 mb - 0.00 in0.0 mm 0.00 in0.0 mm
06:42 PM 54.9°F12.7°C 42.1°F5.6°C 62% 6.9 mph WSW11.1 kmh WSW 6.9 mph11.1 kmh 30.16 in1021.3 mb - 0.00 in0.0 mm 0.00 in0.0 mm
06:47 PM 54.7°F12.6°C 41.9°F5.5°C 62% 6.9 mph W11.1 kmh W 11.6 mph18.7 kmh 30.16 in1021.3 mb - 0.00 in0.0 mm 0.00 in0.0 mm
06:52 PM 54.7°F12.6°C 41.9°F5.5°C 62% 5.6 mph WNW9.0 kmh WNW 10.7 mph17.2 kmh 30.16 in1021.3 mb - 0.00 in0.0 mm 0.00 in0.0 mm
06:57 PM 54.7°F12.6°C 41.9°F5.5°C 62% 4.9 mph NW7.9 kmh NW 11.9 mph19.2 kmh 30.16 in1021.3 mb - 0.00 in0.0 mm 0.00 in0.0 mm
07:02 PM 54.7°F12.6°C 41.5°F5.3°C 61% 4.3 mph NW6.9 kmh NW 11.0 mph17.7 kmh 30.16 in1021.3 mb - 0.00 in0.0 mm 0.00 in0.0 mm
07:07 PM 54.7°F12.6°C 41.5°F5.3°C 61% 4.7 mph W7.6 kmh W 13.0 mph20.9 kmh 30.16 in1021.3 mb - 0.00 in0.0 mm 0.00 in0.0 mm
07:12 PM 54.7°F12.6°C 41.5°F5.3°C 61% 5.4 mph W8.7 kmh W 11.4 mph18.3 kmh 30.16 in1021.3 mb - 0.00 in0.0 mm 0.00 in0.0 mm
07:17 PM 54.7°F12.6°C 41.2°F5.1°C 60% 5.4 mph WNW8.7 kmh WNW 13.2 mph21.2 kmh 30.16 in1021.3 mb - 0.00 in0.0 mm 0.00 in0.0 mm
07:22 PM 54.5°F12.5°C 41.0°F5.0°C 60% 4.0 mph W6.4 kmh W 11.9 mph19.2 kmh 30.19 in1022.4 mb - 0.00 in0.0 mm 0.00 in0.0 mm
07:27 PM 54.5°F12.5°C 41.0°F5.0°C 60% 3.6 mph W5.8 kmh W 8.3 mph13.4 kmh 30.19 in1022.4 mb - 0.00 in0.0 mm 0.00 in0.0 mm
07:32 PM 54.3°F12.4°C 40.3°F4.6°C 59% 5.6 mph W9.0 kmh W 13.4 mph21.6 kmh 30.19 in1022.4 mb - 0.00 in0.0 mm 0.00 in0.0 mm
07:37 PM 54.3°F12.4°C 40.3°F4.6°C 59% 3.8 mph W6.1 kmh W 7.6 mph12.2 kmh 30.16 in1021.3 mb - 0.00 in0.0 mm 0.00 in0.0 mm
07:42 PM 54.5°F12.5°C 40.5°F4.7°C 59% 4.0 mph W6.4 kmh W 9.2 mph14.8 kmh 30.16 in1021.3 mb - 0.00 in0.0 mm 0.00 in0.0 mm
07:47 PM 54.5°F12.5°C 40.1°F4.5°C 58% 6.9 mph WSW11.1 kmh WSW 12.3 mph19.8 kmh 30.16 in1021.3 mb - 0.00 in0.0 mm 0.00 in0.0 mm
07:52 PM 54.5°F12.5°C 40.1°F4.5°C 58% 6.5 mph WNW10.5 kmh WNW 11.4 mph18.3 kmh 30.19 in1022.4 mb - 0.00 in0.0 mm 0.00 in0.0 mm
07:57 PM 54.7°F12.6°C 40.3°F4.6°C 58% 6.3 mph W10.1 kmh W 6.3 mph10.1 kmh 30.19 in1022.4 mb - 0.00 in0.0 mm 0.00 in0.0 mm
08:02 PM 54.7°F12.6°C 40.3°F4.6°C 58% 7.6 mph WSW12.2 kmh WSW 13.4 mph21.6 kmh 30.19 in1022.4 mb - 0.00 in0.0 mm 0.00 in0.0 mm
08:07 PM 54.5°F12.5°C 40.1°F4.5°C 58% 5.8 mph WSW9.3 kmh WSW 10.7 mph17.2 kmh 30.19 in1022.4 mb - 0.00 in0.0 mm 0.00 in0.0 mm
08:12 PM 54.5°F12.5°C 40.1°F4.5°C 58% 5.8 mph W9.3 kmh W 10.1 mph16.3 kmh 30.19 in1022.4 mb - 0.00 in0.0 mm 0.00 in0.0 mm
08:17 PM 54.3°F12.4°C 40.3°F4.6°C 59% 5.1 mph W8.2 kmh W 10.3 mph16.6 kmh 30.19 in1022.4 mb - 0.00 in0.0 mm 0.00 in0.0 mm
08:22 PM 54.1°F12.3°C 40.1°F4.5°C 59% 5.6 mph WSW9.0 kmh WSW 9.2 mph14.8 kmh 30.19 in1022.4 mb - 0.00 in0.0 mm 0.00 in0.0 mm
08:27 PM 54.1°F12.3°C 40.1°F4.5°C 59% 6.7 mph W10.8 kmh W 9.8 mph15.8 kmh 30.19 in1022.4 mb - 0.00 in0.0 mm 0.00 in0.0 mm
08:32 PM 54.0°F12.2°C 39.9°F4.4°C 59% 7.2 mph W11.6 kmh W 10.7 mph17.2 kmh 30.19 in1022.4 mb - 0.00 in0.0 mm 0.00 in0.0 mm
08:37 PM 54.0°F12.2°C 39.6°F4.2°C 58% 4.7 mph SW7.6 kmh SW 7.4 mph11.9 kmh 30.19 in1022.4 mb - 0.00 in0.0 mm 0.00 in0.0 mm
08:42 PM 54.0°F12.2°C 39.6°F4.2°C 58% 4.5 mph W7.2 kmh W 8.1 mph13.0 kmh 30.19 in1022.4 mb - 0.00 in0.0 mm 0.00 in0.0 mm
08:47 PM 54.0°F12.2°C 39.6°F4.2°C 58% 5.6 mph WSW9.0 kmh WSW 10.3 mph16.6 kmh 30.19 in1022.4 mb - 0.00 in0.0 mm 0.00 in0.0 mm
08:52 PM 54.0°F12.2°C 39.6°F4.2°C 58% 4.9 mph WSW7.9 kmh WSW 4.9 mph7.9 kmh 30.19 in1022.4 mb - 0.00 in0.0 mm 0.00 in0.0 mm
08:57 PM 53.8°F12.1°C 39.0°F3.9°C 57% 4.9 mph W7.9 kmh W 10.5 mph16.9 kmh 30.19 in1022.4 mb - 0.00 in0.0 mm 0.00 in0.0 mm
09:02 PM 53.8°F12.1°C 39.0°F3.9°C 57% 4.7 mph SW7.6 kmh SW 9.8 mph15.8 kmh 30.19 in1022.4 mb - 0.00 in0.0 mm 0.00 in0.0 mm
09:07 PM 53.8°F12.1°C 39.0°F3.9°C 57% 5.4 mph NW8.7 kmh NW 9.2 mph14.8 kmh 30.19 in1022.4 mb - 0.00 in0.0 mm 0.00 in0.0 mm
09:12 PM 53.6°F12.0°C 38.8°F3.8°C 57% 5.1 mph WNW8.2 kmh WNW 9.6 mph15.4 kmh 30.19 in1022.4 mb - 0.00 in0.0 mm 0.00 in0.0 mm
09:17 PM 53.6°F12.0°C 39.2°F4.0°C 58% 6.0 mph WNW9.7 kmh WNW 13.0 mph20.9 kmh 30.19 in1022.4 mb - 0.00 in0.0 mm 0.00 in0.0 mm
09:22 PM 53.4°F11.9°C 39.0°F3.9°C 58% 5.4 mph W8.7 kmh W 10.7 mph17.2 kmh 30.19 in1022.4 mb - 0.00 in0.0 mm 0.00 in0.0 mm
09:27 PM 53.2°F11.8°C 39.4°F4.1°C 59% 2.7 mph SW4.3 kmh SW 8.3 mph13.4 kmh 30.19 in1022.4 mb - 0.00 in0.0 mm 0.00 in0.0 mm
09:32 PM 53.1°F11.7°C 39.2°F4.0°C 59% 3.1 mph WNW5.0 kmh WNW 8.7 mph14.0 kmh 30.19 in1022.4 mb - 0.00 in0.0 mm 0.00 in0.0 mm
09:37 PM 53.1°F11.7°C 39.6°F4.2°C 60% 3.8 mph W6.1 kmh W 8.9 mph14.3 kmh 30.19 in1022.4 mb - 0.00 in0.0 mm 0.00 in0.0 mm
09:42 PM 52.9°F11.6°C 39.4°F4.1°C 60% 4.3 mph WSW6.9 kmh WSW 9.4 mph15.1 kmh 30.19 in1022.4 mb - 0.00 in0.0 mm 0.00 in0.0 mm
09:47 PM 52.9°F11.6°C 39.4°F4.1°C 60% 2.5 mph W4.0 kmh W 6.0 mph9.7 kmh 30.19 in1022.4 mb - 0.00 in0.0 mm 0.00 in0.0 mm
09:52 PM 52.9°F11.6°C 39.7°F4.3°C 61% 4.7 mph W7.6 kmh W 8.9 mph14.3 kmh 30.19 in1022.4 mb - 0.00 in0.0 mm 0.00 in0.0 mm
09:57 PM 52.9°F11.6°C 39.7°F4.3°C 61% 4.0 mph WNW6.4 kmh WNW 7.4 mph11.9 kmh 30.19 in1022.4 mb - 0.00 in0.0 mm 0.00 in0.0 mm
10:02 PM 52.9°F11.6°C 39.7°F4.3°C 61% 4.5 mph W7.2 kmh W 7.2 mph11.6 kmh 30.19 in1022.4 mb - 0.00 in0.0 mm 0.00 in0.0 mm
10:07 PM 52.9°F11.6°C 39.7°F4.3°C 61% 2.2 mph SW3.5 kmh SW 8.1 mph13.0 kmh 30.19 in1022.4 mb - 0.00 in0.0 mm 0.00 in0.0 mm
10:12 PM 52.9°F11.6°C 39.7°F4.3°C 61% 0.4 mph W0.6 kmh W 4.3 mph6.9 kmh 30.19 in1022.4 mb - 0.00 in0.0 mm 0.00 in0.0 mm
10:17 PM 52.9°F11.6°C 39.7°F4.3°C 61% 1.1 mph WSW1.8 kmh WSW 6.7 mph10.8 kmh 30.19 in1022.4 mb - 0.00 in0.0 mm 0.00 in0.0 mm
10:22 PM 52.5°F11.4°C 39.6°F4.2°C 61% 2.2 mph NW3.5 kmh NW 4.7 mph7.6 kmh 30.22 in1023.4 mb - 0.00 in0.0 mm 0.00 in0.0 mm
10:27 PM 52.0°F11.1°C 39.0°F3.9°C 61% 0.7 mph NNE1.1 kmh NNE 4.0 mph6.4 kmh 30.22 in1023.4 mb - 0.00 in0.0 mm 0.00 in0.0 mm
10:32 PM 51.4°F10.8°C 38.5°F3.6°C 61% 2.9 mph N4.7 kmh N 6.5 mph10.5 kmh 30.22 in1023.4 mb - 0.00 in0.0 mm 0.00 in0.0 mm
10:37 PM 50.9°F10.5°C 37.9°F3.3°C 61% 0.9 mph NNE1.4 kmh NNE 4.0 mph6.4 kmh 30.22 in1023.4 mb - 0.00 in0.0 mm 0.00 in0.0 mm
10:42 PM 50.7°F10.4°C 38.1°F3.4°C 62% Calm Calm -- 30.22 in1023.4 mb - 0.00 in0.0 mm 0.00 in0.0 mm
10:47 PM 50.4°F10.2°C 37.9°F3.3°C 62% Calm Calm -- 30.22 in1023.4 mb - 0.00 in0.0 mm 0.00 in0.0 mm
10:52 PM 50.5°F10.3°C 38.5°F3.6°C 63% Calm Calm -- 30.22 in1023.4 mb - 0.00 in0.0 mm 0.00 in0.0 mm
10:57 PM 51.1°F10.6°C 39.4°F4.1°C 64% Calm Calm 1.1 mph1.8 kmh 30.22 in1023.4 mb - 0.00 in0.0 mm 0.00 in0.0 mm
11:02 PM 51.4°F10.8°C 39.7°F4.3°C 64% 1.3 mph WNW2.1 kmh WNW 5.6 mph9.0 kmh 30.22 in1023.4 mb - 0.00 in0.0 mm 0.00 in0.0 mm
11:07 PM 51.8°F11.0°C 39.6°F4.2°C 63% 2.2 mph W3.5 kmh W 7.2 mph11.6 kmh 30.22 in1023.4 mb - 0.00 in0.0 mm 0.00 in0.0 mm
11:12 PM 51.8°F11.0°C 39.2°F4.0°C 62% 2.5 mph WNW4.0 kmh WNW 8.7 mph14.0 kmh 30.22 in1023.4 mb - 0.00 in0.0 mm 0.00 in0.0 mm
11:17 PM 52.0°F11.1°C 39.4°F4.1°C 62% 2.9 mph WNW4.7 kmh WNW 6.5 mph10.5 kmh 30.22 in1023.4 mb - 0.00 in0.0 mm 0.00 in0.0 mm
11:22 PM 51.8°F11.0°C 39.2°F4.0°C 62% 2.9 mph WSW4.7 kmh WSW 7.4 mph11.9 kmh 30.19 in1022.4 mb - 0.00 in0.0 mm 0.00 in0.0 mm
11:27 PM 51.8°F11.0°C 39.2°F4.0°C 62% 1.3 mph W2.1 kmh W 5.4 mph8.7 kmh 30.19 in1022.4 mb - 0.00 in0.0 mm 0.00 in0.0 mm
11:32 PM 51.6°F10.9°C 39.0°F3.9°C 62% 0.7 mph WNW1.1 kmh WNW 4.9 mph7.9 kmh 30.19 in1022.4 mb - 0.00 in0.0 mm 0.00 in0.0 mm
11:37 PM 51.3°F10.7°C 38.7°F3.7°C 62% 1.1 mph W1.8 kmh W 4.5 mph7.2 kmh 30.19 in1022.4 mb - 0.00 in0.0 mm 0.00 in0.0 mm
11:42 PM 50.7°F10.4°C 38.1°F3.4°C 62% Calm Calm -- 30.19 in1022.4 mb - 0.00 in0.0 mm 0.00 in0.0 mm
11:47 PM 50.4°F10.2°C 37.9°F3.3°C 62% Calm Calm -- 30.19 in1022.4 mb - 0.00 in0.0 mm 0.00 in0.0 mm
11:52 PM 49.8°F9.9°C 37.4°F3.0°C 62% Calm Calm -- 30.19 in1022.4 mb - 0.00 in0.0 mm 0.00 in0.0 mm
11:57 PM 48.9°F9.4°C 36.5°F2.5°C 62% Calm Calm -- 30.19 in1022.4 mb - 0.00 in0.0 mm 0.00 in0.0 mm